»·PEaware :: N41598 KDEN-KCOS

N41598 :: KDEN-KCOS

FLIGHT INFORMATION

Flight Status: Arrived
Operator: Privately registered:
United States
More flights under this callsign
Pilot: Alex C. (14758)
Aircraft: BEECH AIRCRAFT BEECH AIRLINER
(B190)
More flights by this aircraft type
Origin: KDEN Denver Intl
United States
Destination: KCOS City Of Colorado Springs Mun
United States
More flights between these airports :: More routes between these airports
Route: +LUFSE V389 ADANE BRK
File this flight plan on PilotEdge
Remarks:
Altitude:
(Current/Filed)
15,000ft
Speed:
(Current/Filed)
240kts
Departed: 17-Nov-18 08:29 PM
Arrived: 17-Nov-18 08:56 PM
Distance/Time
Traveled:
63nm/0:27
Distance/Time
To Go:
Arrived

Flight Plot

Page will automatically refresh every two minutes.


Map Options




Map Legend


Flown Route
Filed Route
Departure Airport
Arrival Airport
Navaid (VOR, NDB)
Fix

Horizontal Profiles

Position Reports

Time Latitude Longitude Heading Altitude Ground
Speed
17-Nov-18 20:11 39.865625 -104.676639 0 5436ft 0kts
17-Nov-18 20:12 39.865625 -104.676639 0 5436ft 0kts
17-Nov-18 20:13 39.865625 -104.676639 0 5436ft 0kts
17-Nov-18 20:14 39.865625 -104.676639 0 5436ft 0kts
17-Nov-18 20:15 39.865625 -104.676639 0 5436ft 0kts
17-Nov-18 20:16 39.865625 -104.676639 0 5436ft 0kts
17-Nov-18 20:17 39.865625 -104.676639 0 5436ft 0kts
17-Nov-18 20:18 39.865625 -104.676639 0 5436ft 0kts
17-Nov-18 20:19 39.865625 -104.676639 0 5436ft 0kts
17-Nov-18 20:20 39.865666 -104.676639 0 5436ft 3kts
17-Nov-18 20:21 39.864870 -104.674011 98 5436ft 21kts
17-Nov-18 20:22 39.864714 -104.669619 91 5436ft 21kts
17-Nov-18 20:23 39.864981 -104.664983 76 5436ft 20kts
17-Nov-18 20:24 39.865009 -104.664074 90 5436ft 0kts
17-Nov-18 20:25 39.865009 -104.664074 90 5436ft 0kts
17-Nov-18 20:26 39.865057 -104.662495 89 5436ft 17kts
17-Nov-18 20:27 39.864928 -104.658921 109 5436ft 6kts
17-Nov-18 20:28 39.864882 -104.661902 230 5436ft 21kts
17-Nov-18 20:29 39.861021 -104.661391 87 5436ft 0kts
17-Nov-18 20:30 39.861021 -104.661391 87 5436ft 0kts
17-Nov-18 20:31 39.860674 -104.659966 170 5436ft 17kts
17-Nov-18 20:32 39.834958 -104.661744 189 6009ft 172kts
17-Nov-18 20:33 39.788022 -104.672734 190 8000ft 188kts
17-Nov-18 20:34 39.746194 -104.680632 190 9624ft 191kts
17-Nov-18 20:35 39.704700 -104.663679 155 10956ft 209kts
17-Nov-18 20:36 39.660099 -104.636607 157 11001ft 246kts
17-Nov-18 20:37 39.614394 -104.609885 157 11001ft 247kts
17-Nov-18 20:38 39.567809 -104.582983 157 11003ft 250kts
17-Nov-18 20:39 39.523279 -104.557366 157 11005ft 251kts
17-Nov-18 20:40 39.477633 -104.531159 157 10999ft 253kts
17-Nov-18 20:41 39.430084 -104.503896 157 10987ft 254kts
17-Nov-18 20:42 39.389155 -104.489398 191 10995ft 244kts
17-Nov-18 20:43 39.344252 -104.500177 194 10963ft 241kts
17-Nov-18 20:44 39.302102 -104.510544 193 10962ft 239kts
17-Nov-18 20:45 39.260011 -104.529443 213 10960ft 233kts
17-Nov-18 20:46 39.220595 -104.559332 213 10956ft 233kts
17-Nov-18 20:47 39.182414 -104.588236 213 10971ft 232kts
17-Nov-18 20:48 39.144874 -104.616589 213 10529ft 230kts
17-Nov-18 20:49 39.105012 -104.643288 203 9785ft 217kts
17-Nov-18 20:50 39.062438 -104.663802 203 9045ft 216kts
17-Nov-18 20:51 39.021724 -104.683226 194 8982ft 214kts
17-Nov-18 20:52 38.979710 -104.685128 182 8990ft 215kts
17-Nov-18 20:53 38.939294 -104.685555 182 8629ft 203kts
17-Nov-18 20:54 38.905148 -104.685436 182 8073ft 153kts
17-Nov-18 20:55 38.881622 -104.685383 183 7536ft 123kts
17-Nov-18 20:56 38.857923 -104.685570 182 7070ft 131kts
17-Nov-18 20:57 38.833209 -104.685679 181 6580ft 128kts
17-Nov-18 20:58 38.811027 -104.685648 180 6192ft 70kts
17-Nov-18 20:59 38.807653 -104.686746 330 6192ft 16kts
17-Nov-18 21:00 38.808413 -104.687262 332 6192ft 4kts

Navigation Log

Ident Type
Flight plan parsing failed, navigation log unavailable